Terminal Aerodrome Forecast
Issued by NWS Jackson, MS

Home | Current Version | Previous Version | Text Only | Print | Product List | Glossary On
Versions: 1 2 3 4 5 6 7 8 9 10 11 12 13 14
364
FTUS44 KJAN 031125
TAFGWO
TAF
KGWO 031125Z 0312/0412 07009KT 6SM -RA OVC100
     FM031900 08012G20KT 4SM -RA BR OVC015
     FM032300 08013G20KT 4SM -RA BR OVC007=

USA.gov is the U.S. government's official web portal to all federal, state and local government web resources and services.